Terminal Aerodrome Forecast
Issued by NWS

Home | Current Version | Previous Version | Text Only | Print | Product List | Glossary On
Versions: 1 2 3 4 5 6 7 8 9 10 11 12 13 14 15 16
000
FTUS42 TJSJ 310200 AAA
TAFJSJ
TAF AMD
TJSJ 310219Z 3102/3124 25008KT P6SM VCTS SCT022CB BKN050
     FM310250 VRB05KT P6SM -RA FEW025 SCT050 BKN120
     FM310900 00000KT P6SM VCSH SCT022 BKN050
     FM311230 22008KT P6SM FEW030 SCT060
     FM311730 VRB10KT P6SM VCTS SCT025CB BKN050=

USA.gov is the U.S. government's official web portal to all federal, state and local government web resources and services.